DW8234 Weather Reports


Display with metric or nautical units.
time (UTC)temp
F
wind
direction
speed
MPH
gust
MPH
rain 1hr
in
rain 24hr
in
rain mn
in
humidity
%
barometer
mb
20180923234430 81 81 0.0 8.0 0.00 0.00 0.00 76 1014.3
20180923233230 81 48 0.0 8.0 0.00 0.00 0.00 75 1014.3
20180923231430 82 45 3.0 4.0 0.00 0.00 0.00 72 1014.3
20180923230830 82 74 1.0 3.0 0.00 0.00 0.00 71 1014.3
20180923225629 83 71 2.0 6.0 0.00 0.00 0.00 69 1014.2
20180923225030 84 110 0.0 6.0 0.00 0.00 0.00 69 1014.1
20180923224429 84 89 0.0 6.0 0.00 0.00 0.00 68 1014.0
20180923223829 85 43 2.0 6.0 0.00 0.00 0.00 66 1013.8
20180923223229 85 120 3.0 6.0 0.00 0.00 0.00 65 1013.8
20180923222029 86 72 0.0 4.0 0.00 0.00 0.00 64 1013.8
20180923221429 86 109 1.0 4.0 0.00 0.00 0.00 63 1013.8
20180923220229 87 68 0.0 2.0 0.00 0.00 0.00 62 1013.8
20180923214429 88 125 5.0 9.0 0.00 0.00 0.00 61 1013.8
20180923213829 88 87 1.0 9.0 0.00 0.00 0.00 62 1013.8
20180923212629 88 66 2.0 9.0 0.00 0.00 0.00 60 1013.7
20180923211428 88 103 2.0 6.0 0.00 0.00 0.00 60 1013.7
20180923210829 89 79 0.0 6.0 0.00 0.00 0.00 58 1013.7
20180923205628 89 75 1.0 8.0 0.00 0.00 0.00 58 1013.7
20180923204428 90 76 2.0 8.0 0.00 0.00 0.00 56 1013.6
20180923203828 90 112 2.0 8.0 0.00 0.00 0.00 56 1013.6
20180923203228 90 122 1.0 8.0 0.00 0.00 0.00 56 1013.6
20180923202028 90 28 0.0 7.0 0.00 0.00 0.00 58 1013.7
20180923200228 90 119 1.0 4.0 0.00 0.00 0.00 55 1013.6
20180923195628 90 128 2.0 10.0 0.00 0.00 0.00 55 1013.7
20180923194427 90 113 2.0 10.0 0.00 0.00 0.00 56 1013.7
20180923191427 91 77 1.0 4.0 0.00 0.00 0.00 53 1013.8
20180923190227 90 41 0.0 3.0 0.00 0.00 0.00 56 1013.9
20180923185627 90 108 1.0 9.0 0.00 0.00 0.00 53 1014.2
20180923184427 91 2 0.0 7.0 0.00 0.00 0.00 54 1014.3
20180923182027 90 125 2.0 7.0 0.00 0.00 0.00 55 1014.9
20180923181426 90 303 1.0 7.0 0.00 0.00 0.00 55 1014.9
20180923180826 91 75 1.0 7.0 0.00 0.00 0.00 54 1015.0
20180923180227 91 64 2.0 5.0 0.00 0.00 0.00 53 1015.0
20180923175626 90 85 2.0 8.0 0.00 0.00 0.00 55 1014.9
20180923174426 91 88 2.0 8.0 0.00 0.00 0.00 53 1015.2
20180923172626 90 131 3.0 7.0 0.00 0.00 0.00 56 1015.5
20180923170826 90 55 3.0 7.0 0.00 0.00 0.00 56 1015.4
20180923170226 90 52 0.0 3.0 0.00 0.00 0.00 57 1015.5
20180923165626 89 71 1.0 6.0 0.00 0.00 0.00 59 1015.7
20180923165025 88 58 1.0 5.0 0.00 0.00 0.00 62 1015.7
20180923162025 88 210 2.0 4.0 0.00 0.00 0.00 62 1016.1
20180923161425 88 31 0.0 4.0 0.00 0.00 0.00 63 1016.2
20180923160225 87 86 2.0 2.0 0.00 0.00 0.00 67 1016.3
20180923155625 86 98 1.0 5.0 0.00 0.00 0.00 65 1016.4
20180923155025 86 126 3.0 5.0 0.00 0.00 0.00 64 1016.5
20180923153825 88 91 0.0 5.0 0.00 0.00 0.00 62 1016.4
20180923152625 89 213 0.0 5.0 0.00 0.00 0.00 61 1016.5
20180923152024 88 77 1.0 5.0 0.00 0.00 0.00 63 1016.5
20180923145625 87 91 1.0 6.0 0.00 0.00 0.00 65 1016.6
20180923143824 86 168 0.0 6.0 0.00 0.00 0.00 66 1016.6
20180923142624 85 175 0.0 6.0 0.00 0.00 0.00 67 1016.6
20180923142024 85 116 3.0 3.0 0.00 0.00 0.00 65 1016.5
20180923141424 85 129 0.0 0.0 0.00 0.00 0.00 67 1016.2
20180923140824 85 106 0.0 0.0 0.00 0.00 0.00 67 1016.4
20180923140223 85 68 0.0 0.0 0.00 0.00 0.00 70 1016.3
20180923135624 85 98 0.0 0.0 0.00 0.00 0.00 70 1016.4
20180923133823 83 47 0.0 0.0 0.00 0.00 0.00 74 1016.1
20180923132023 80 77 0.0 0.0 0.00 0.00 0.00 79 1016.0
20180923131423 79 72 0.0 0.0 0.00 0.00 0.00 84 1015.8
20180923130823 78 90 0.0 0.0 0.00 0.00 0.00 89 1015.9
20180923130223 76 90 0.0 0.0 0.00 0.00 0.00 95 1016.0
20180923124423 74 90 0.0 0.0 0.00 0.00 0.00 99 1015.8
20180923123823 74 90 0.0 0.0 0.00 0.00 0.00 99 1015.7
20180923120823 72 90 0.0 0.0 0.00 0.00 0.00 99 1015.6
20180923120222 72 90 0.0 0.0 0.00 0.00 0.00 99 1015.5
20180923114422 72 90 0.0 0.0 0.00 0.00 0.00 98 1015.2
20180923113222 72 90 0.0 0.0 0.00 0.00 0.00 98 1015.3
20180923112622 72 90 0.0 0.0 0.00 0.00 0.00 98 1015.2
20180923112022 72 90 0.0 0.0 0.00 0.00 0.00 98 1015.2
20180923111422 72 90 0.0 0.0 0.00 0.00 0.00 98 1015.1
20180923105622 72 90 0.0 0.0 0.00 0.00 0.00 98 1015.0
20180923105021 72 90 0.0 0.0 0.00 0.00 0.00 98 1014.9
20180923104421 72 90 0.0 0.0 0.00 0.00 0.00 98 1014.9
20180923103821 72 90 0.0 0.0 0.00 0.00 0.00 98 1014.8
20180923101421 72 90 0.0 0.0 0.00 0.00 0.00 98 1014.4
20180923100221 72 90 0.0 0.0 0.00 0.00 0.00 98 1014.5
20180923095621 72 90 0.0 0.0 0.00 0.00 0.00 97 1014.5
20180923095021 72 90 0.0 0.0 0.00 0.00 0.00 98 1014.5
20180923093221 72 90 0.0 0.0 0.00 0.00 0.00 98 1014.3
20180923083220 72 90 0.0 0.0 0.00 0.00 0.00 97 1014.7
20180923082020 72 90 0.0 0.0 0.00 0.00 0.00 97 1014.8
20180923081420 72 90 0.0 0.0 0.00 0.00 0.00 97 1014.7
20180923080820 72 90 0.0 0.0 0.00 0.00 0.00 97 1014.8
20180923075020 72 90 0.0 0.0 0.00 0.00 0.00 97 1014.8
20180923073820 73 90 0.0 0.0 0.00 0.00 0.00 97 1014.8
20180923073220 73 90 0.0 0.0 0.00 0.00 0.00 97 1014.7
20180923072619 73 90 0.0 0.0 0.00 0.00 0.00 96 1014.8
20180923071419 73 90 0.0 0.0 0.00 0.00 0.00 96 1014.8
20180923070819 73 90 0.0 0.0 0.00 0.00 0.00 96 1014.7
20180923065619 73 90 0.0 0.0 0.00 0.00 0.00 96 1014.9
20180923065019 73 90 0.0 0.0 0.00 0.00 0.00 96 1014.9
20180923064419 73 90 0.0 0.0 0.00 0.00 0.00 96 1015.0
20180923062019 73 90 0.0 0.0 0.00 0.00 0.00 95 1015.2
20180923055618 73 90 0.0 0.0 0.00 0.00 0.00 94 1015.2
20180923055018 73 90 0.0 0.0 0.00 0.00 0.00 94 1015.3
20180923054418 73 90 0.0 0.0 0.00 0.00 0.00 94 1015.4
20180923053218 73 90 0.0 0.0 0.00 0.00 0.00 94 1015.6
20180923052018 73 90 0.0 0.0 0.00 0.00 0.00 94 1015.6
20180923051418 73 90 0.0 0.0 0.00 0.00 0.00 94 1015.6
20180923050818 74 90 0.0 0.0 0.00 0.00 0.00 93 1015.6
20180923045618 74 90 0.0 0.0 0.00 0.00 0.00 93 1015.4
20180923045017 74 90 0.0 0.0 0.00 0.00 0.00 93 1015.6
20180923043817 74 90 0.0 0.0 0.00 0.00 0.00 92 1015.7
20180923042017 74 90 0.0 0.0 0.00 0.00 0.00 91 1015.8
20180923041417 74 90 0.0 0.0 0.00 0.00 0.00 91 1015.8
20180923032617 75 90 0.0 0.0 0.00 0.00 0.00 89 1016.0
20180923030817 75 90 0.0 0.0 0.00 0.00 0.00 89 1016.0
20180923030217 75 90 0.0 0.0 0.00 0.00 0.00 89 1015.9
20180923025617 75 90 0.0 0.0 0.00 0.00 0.00 89 1016.1
20180923024416 75 90 0.0 0.0 0.00 0.00 0.00 89 1016.1
20180923022616 75 90 0.0 0.0 0.00 0.00 0.00 89 1015.9
20180923022016 75 90 0.0 0.0 0.00 0.00 0.00 88 1015.8
20180923021416 75 90 0.0 0.0 0.00 0.00 0.00 88 1015.9
20180923015616 76 90 0.0 1.0 0.00 0.00 0.00 87 1015.9
20180923015016 76 90 0.0 1.0 0.00 0.00 0.00 88 1015.9
20180923012615 76 90 0.0 1.0 0.00 0.00 0.00 86 1015.6
20180923012015 76 90 0.0 1.0 0.00 0.00 0.00 86 1015.6
20180923010215 76 90 0.0 0.0 0.00 0.00 0.00 84 1015.5
20180923005015 77 90 0.0 0.0 0.00 0.00 0.00 84 1015.2
20180923003215 78 90 0.0 0.0 0.00 0.00 0.00 83 1015.1
20180923001415 78 90 0.0 0.0 0.00 0.00 0.00 80 1015.1
20180923000814 79 90 0.0 0.0 0.00 0.00 0.00 80 1015.0
20180923000215 79 90 0.0 0.0 0.00 0.00 0.00 79 1015.1